createdAt,value
2018-11-14T00:00:13.303Z,0
2018-11-14T00:01:14.073Z,0
2018-11-14T00:02:14.789Z,0
2018-11-14T00:03:15.563Z,0
2018-11-14T00:04:16.285Z,0
2018-11-14T00:05:17.021Z,0
2018-11-14T00:06:17.774Z,0
2018-11-14T00:07:18.580Z,0
2018-11-14T00:08:19.299Z,0
2018-11-14T00:09:20.058Z,0
2018-11-14T00:10:20.756Z,0
2018-11-14T00:11:21.523Z,0
2018-11-14T00:12:22.230Z,0
2018-11-14T00:13:22.942Z,0
2018-11-14T00:14:23.673Z,0
2018-11-14T00:15:24.392Z,0
2018-11-14T00:16:25.099Z,0
2018-11-14T00:17:25.817Z,0
2018-11-14T00:18:26.811Z,0
2018-11-14T00:19:27.553Z,0
2018-11-14T00:20:28.247Z,0
2018-11-14T00:21:29.221Z,0
2018-11-14T00:22:29.963Z,0
2018-11-14T00:23:30.952Z,0
2018-11-14T00:24:31.649Z,0
2018-11-14T00:25:32.368Z,0
2018-11-14T00:26:33.088Z,0
2018-11-14T00:27:33.816Z,0
2018-11-14T00:28:34.768Z,0
2018-11-14T00:29:35.456Z,0
2018-11-14T00:30:36.159Z,0
2018-11-14T00:31:36.902Z,0
2018-11-14T00:32:37.625Z,0
2018-11-14T00:33:38.346Z,0
2018-11-14T00:34:39.127Z,0
2018-11-14T00:35:39.839Z,0
2018-11-14T00:36:40.487Z,0
2018-11-14T00:37:41.218Z,0
2018-11-14T00:38:41.933Z,0
2018-11-14T00:39:42.657Z,0
2018-11-14T00:40:43.379Z,0
2018-11-14T00:41:44.083Z,0
2018-11-14T00:42:44.796Z,0
2018-11-14T00:43:45.772Z,0
2018-11-14T00:44:46.489Z,0
2018-11-14T00:45:47.208Z,0
2018-11-14T00:46:47.916Z,0
2018-11-14T00:47:48.621Z,0
2018-11-14T00:48:49.345Z,0
2018-11-14T00:49:50.060Z,0
2018-11-14T00:50:50.771Z,0
2018-11-14T00:51:51.485Z,0
2018-11-14T00:52:52.200Z,0
2018-11-14T00:53:52.909Z,0
2018-11-14T00:54:53.628Z,0
2018-11-14T00:55:54.459Z,0
2018-11-14T00:56:55.181Z,0
2018-11-14T00:57:55.905Z,0
2018-11-14T00:58:56.631Z,0
2018-11-14T00:59:57.357Z,0
2018-11-14T01:00:58.071Z,0
2018-11-14T01:01:58.795Z,0
2018-11-14T01:02:59.538Z,0
2018-11-14T01:04:00.255Z,0
2018-11-14T01:05:00.984Z,0
2018-11-14T01:06:01.692Z,0
2018-11-14T01:07:02.417Z,0
2018-11-14T01:08:03.397Z,0
2018-11-14T01:09:04.162Z,0
2018-11-14T01:10:04.826Z,0
2018-11-14T01:11:05.809Z,0
2018-11-14T01:12:06.522Z,0
2018-11-14T01:13:07.266Z,0
2018-11-14T01:14:07.957Z,0
2018-11-14T01:15:08.681Z,0
2018-11-14T01:16:09.496Z,0
2018-11-14T01:17:10.217Z,0
2018-11-14T01:18:10.935Z,0
2018-11-14T01:19:11.657Z,0
2018-11-14T01:20:12.378Z,0
2018-11-14T01:21:13.102Z,0
2018-11-14T01:22:13.815Z,0
2018-11-14T01:23:14.542Z,0
2018-11-14T01:24:15.264Z,0
2018-11-14T01:25:15.979Z,0
2018-11-14T01:26:16.717Z,0
2018-11-14T01:27:17.445Z,0
2018-11-14T01:28:18.209Z,0
2018-11-14T01:29:18.932Z,0
2018-11-14T01:30:19.653Z,0
2018-11-14T01:31:20.374Z,0
2018-11-14T01:32:21.104Z,0
2018-11-14T01:33:21.914Z,0
2018-11-14T01:34:22.638Z,0
2018-11-14T01:35:23.352Z,0
2018-11-14T01:36:24.071Z,0
2018-11-14T01:37:24.793Z,0
2018-11-14T01:38:25.511Z,0
2018-11-14T01:39:26.233Z,0
2018-11-14T01:40:26.952Z,0
2018-11-14T01:41:27.680Z,0
2018-11-14T01:42:28.410Z,0
2018-11-14T01:43:29.123Z,0
2018-11-14T01:44:29.844Z,0
2018-11-14T01:45:30.562Z,0
2018-11-14T01:46:31.281Z,0
2018-11-14T01:47:32.001Z,0
2018-11-14T01:48:32.732Z,0
2018-11-14T01:49:33.471Z,0
2018-11-14T01:50:34.191Z,0
2018-11-14T01:51:35.157Z,0
2018-11-14T01:52:35.877Z,0
2018-11-14T01:53:36.847Z,0
2018-11-14T01:54:37.585Z,0
2018-11-14T01:55:38.356Z,0
2018-11-14T01:56:39.068Z,0
2018-11-14T01:57:39.778Z,0
2018-11-14T01:58:40.502Z,0
2018-11-14T01:59:41.222Z,0
2018-11-14T02:00:41.943Z,0
2018-11-14T02:01:42.668Z,0
2018-11-14T02:02:43.386Z,0
2018-11-14T02:03:44.103Z,0
2018-11-14T02:04:44.819Z,0
2018-11-14T02:05:45.584Z,0
2018-11-14T02:06:46.294Z,0
2018-11-14T02:07:47.013Z,0
2018-11-14T02:08:47.730Z,0
2018-11-14T02:09:48.450Z,0
2018-11-14T02:10:49.170Z,0
2018-11-14T02:11:49.896Z,0
2018-11-14T02:12:50.877Z,0
2018-11-14T02:13:51.582Z,0
2018-11-14T02:14:52.306Z,0
2018-11-14T02:15:53.033Z,0
2018-11-14T02:16:53.758Z,0
2018-11-14T02:17:54.474Z,0
2018-11-14T02:18:55.203Z,0
2018-11-14T02:19:55.926Z,0
2018-11-14T02:20:56.656Z,0
2018-11-14T02:21:57.379Z,0
2018-11-14T02:22:58.095Z,0
2018-11-14T02:23:58.816Z,0
2018-11-14T02:24:59.546Z,0
2018-11-14T02:26:00.266Z,0
2018-11-14T02:27:00.985Z,0
2018-11-14T02:28:01.702Z,0
2018-11-14T02:29:02.431Z,0
2018-11-14T02:30:03.412Z,0
2018-11-14T02:31:04.126Z,0
2018-11-14T02:32:04.841Z,0
2018-11-14T02:33:05.549Z,0
2018-11-14T02:34:06.266Z,0
2018-11-14T02:35:06.984Z,0
2018-11-14T02:36:07.703Z,0
2018-11-14T02:37:08.411Z,0
2018-11-14T02:38:09.130Z,0
2018-11-14T02:39:09.848Z,0
2018-11-14T02:40:10.579Z,0
2018-11-14T02:41:11.306Z,0
2018-11-14T02:42:12.029Z,0
2018-11-14T02:43:12.750Z,0
2018-11-14T02:44:13.467Z,0
2018-11-14T02:45:14.231Z,0
2018-11-14T02:46:14.944Z,0
2018-11-14T02:47:15.664Z,0
2018-11-14T02:48:16.389Z,0
2018-11-14T02:49:17.119Z,0
2018-11-14T02:50:17.851Z,0
2018-11-14T02:51:18.574Z,0
2018-11-14T02:52:19.312Z,0
2018-11-14T02:53:20.041Z,0
2018-11-14T02:54:20.759Z,0
2018-11-14T02:55:21.480Z,0
2018-11-14T02:56:22.203Z,0
2018-11-14T02:57:22.929Z,0
2018-11-14T02:58:23.668Z,0
2018-11-14T02:59:24.385Z,0
2018-11-14T03:00:25.117Z,0
2018-11-14T03:01:25.826Z,0
2018-11-14T03:02:26.553Z,0
2018-11-14T03:03:27.272Z,0
2018-11-14T03:04:28.255Z,0
2018-11-14T03:05:28.978Z,0
2018-11-14T03:06:29.699Z,0
2018-11-14T03:07:30.420Z,0
2018-11-14T03:08:31.394Z,0
2018-11-14T03:09:32.097Z,0
2018-11-14T03:10:32.834Z,0
2018-11-14T03:11:33.797Z,0
2018-11-14T03:12:34.778Z,0
2018-11-14T03:13:35.476Z,0
2018-11-14T03:14:36.194Z,0
2018-11-14T03:15:36.962Z,0
2018-11-14T03:16:37.676Z,0
2018-11-14T03:17:38.406Z,0
2018-11-14T03:18:39.125Z,0
2018-11-14T03:19:39.862Z,0
2018-11-14T03:20:40.624Z,0
2018-11-14T03:21:41.359Z,0
2018-11-14T03:22:42.084Z,0
2018-11-14T03:23:42.808Z,0
2018-11-14T03:24:43.518Z,0
2018-11-14T03:25:44.293Z,0
2018-11-14T03:26:45.005Z,0
2018-11-14T03:27:45.973Z,0
2018-11-14T03:28:46.692Z,0
2018-11-14T03:29:47.426Z,0
2018-11-14T03:30:48.135Z,0
2018-11-14T03:31:48.866Z,0
2018-11-14T03:32:49.632Z,0
2018-11-14T03:33:50.287Z,0
2018-11-14T03:34:51.007Z,0
2018-11-14T03:35:51.726Z,0
2018-11-14T03:36:52.432Z,0
2018-11-14T03:37:53.149Z,0
2018-11-14T03:39:54.852Z,0
2018-11-14T03:40:55.585Z,0
2018-11-14T03:41:56.294Z,0
2018-11-14T03:42:57.017Z,0
2018-11-14T03:43:57.739Z,0
2018-11-14T03:44:58.460Z,0
2018-11-14T03:45:59.187Z,0
2018-11-14T03:46:59.912Z,0
2018-11-14T03:48:00.630Z,0
2018-11-14T03:49:01.341Z,0
2018-11-14T03:50:02.058Z,0
2018-11-14T03:51:02.770Z,0
2018-11-14T03:52:03.727Z,0
2018-11-14T03:53:04.456Z,0
2018-11-14T03:54:05.165Z,0
2018-11-14T03:55:05.894Z,0
2018-11-14T03:56:06.610Z,0
2018-11-14T03:57:07.333Z,0
2018-11-14T03:58:08.058Z,0
2018-11-14T03:59:08.773Z,0
2018-11-14T04:00:09.504Z,0
2018-11-14T04:01:10.225Z,0
2018-11-14T04:02:10.944Z,0
2018-11-14T04:03:11.664Z,0
2018-11-14T04:04:12.383Z,0
2018-11-14T04:05:13.112Z,0
2018-11-14T04:06:13.823Z,0
2018-11-14T04:07:14.557Z,0
2018-11-14T04:08:15.284Z,0
2018-11-14T04:09:16.050Z,0
2018-11-14T04:10:16.713Z,0
2018-11-14T04:11:17.436Z,0
2018-11-14T04:12:18.410Z,0
2018-11-14T04:13:19.133Z,0
2018-11-14T04:14:19.861Z,0
2018-11-14T04:15:20.673Z,0
2018-11-14T04:16:21.395Z,0
2018-11-14T04:17:22.108Z,0
2018-11-14T04:18:22.828Z,0
2018-11-14T04:19:23.540Z,0
2018-11-14T04:20:24.506Z,0
2018-11-14T04:21:25.222Z,0
2018-11-14T04:22:25.959Z,0
2018-11-14T04:23:26.668Z,0
2018-11-14T04:24:27.392Z,0
2018-11-14T04:25:28.104Z,0
2018-11-14T04:26:29.069Z,0
2018-11-14T04:27:29.796Z,0
2018-11-14T04:28:30.514Z,0
2018-11-14T04:29:31.223Z,0
2018-11-14T04:30:31.956Z,0
2018-11-14T04:31:32.678Z,0
2018-11-14T04:32:33.392Z,0
2018-11-14T04:33:34.381Z,0
2018-11-14T04:34:35.080Z,0
2018-11-14T04:35:35.801Z,0
2018-11-14T04:36:36.522Z,0
2018-11-14T04:37:37.229Z,0
2018-11-14T04:38:37.942Z,0
2018-11-14T04:39:38.661Z,0
2018-11-14T04:40:39.374Z,0
2018-11-14T04:41:40.096Z,0
2018-11-14T04:42:40.813Z,0
2018-11-14T04:43:41.536Z,0
2018-11-14T04:44:42.250Z,0
2018-11-14T04:45:42.968Z,0
2018-11-14T04:46:43.683Z,0
2018-11-14T04:47:44.401Z,0
2018-11-14T04:48:45.118Z,0
2018-11-14T04:49:45.838Z,0
2018-11-14T04:50:46.600Z,0
2018-11-14T04:51:47.334Z,0
2018-11-14T04:52:48.055Z,0
2018-11-14T04:53:48.768Z,0
2018-11-14T04:54:49.727Z,0
2018-11-14T04:55:50.448Z,0
2018-11-14T04:56:51.159Z,0
2018-11-14T04:57:51.880Z,0
2018-11-14T04:58:52.643Z,0
2018-11-14T04:59:53.322Z,0
2018-11-14T05:00:54.055Z,0
2018-11-14T05:01:54.767Z,0
2018-11-14T05:02:55.482Z,0
2018-11-14T05:03:56.215Z,0
2018-11-14T05:04:56.936Z,0
2018-11-14T05:05:57.656Z,0
2018-11-14T05:06:58.364Z,0
2018-11-14T05:07:59.252Z,0
2018-11-14T05:08:59.980Z,0
2018-11-14T05:10:00.690Z,0
2018-11-14T05:11:01.408Z,0
2018-11-14T05:12:02.128Z,0
2018-11-14T05:13:02.915Z,0
2018-11-14T05:14:03.662Z,0
2018-11-14T05:15:04.374Z,0
2018-11-14T05:16:05.095Z,0
2018-11-14T05:17:05.817Z,0
2018-11-14T05:18:06.557Z,0
2018-11-14T05:19:07.370Z,0
2018-11-14T05:20:08.084Z,0
2018-11-14T05:21:08.797Z,0
2018-11-14T05:22:09.521Z,0
2018-11-14T05:23:10.247Z,0
2018-11-14T05:24:11.018Z,0
2018-11-14T05:25:11.735Z,0
2018-11-14T05:26:12.441Z,0
2018-11-14T05:27:13.172Z,0
2018-11-14T05:28:13.879Z,0
2018-11-14T05:29:14.658Z,0
2018-11-14T05:30:15.379Z,0
2018-11-14T05:31:16.361Z,0
2018-11-14T05:32:17.079Z,0
2018-11-14T05:33:17.800Z,0
2018-11-14T05:34:18.605Z,0
2018-11-14T05:35:19.320Z,0
2018-11-14T05:36:20.062Z,0
2018-11-14T05:37:20.774Z,0
2018-11-14T05:38:21.498Z,0
2018-11-14T05:39:22.296Z,0
2018-11-14T05:40:22.937Z,0
2018-11-14T05:41:23.703Z,0
2018-11-14T05:42:24.423Z,0
2018-11-14T05:43:25.140Z,0
2018-11-14T05:44:25.847Z,0
2018-11-14T05:45:26.650Z,0
2018-11-14T05:46:27.335Z,0
2018-11-14T05:47:28.302Z,0
2018-11-14T05:48:29.031Z,0
2018-11-14T05:49:29.780Z,0
2018-11-14T05:50:30.742Z,0
2018-11-14T05:51:31.512Z,0
2018-11-14T05:52:32.228Z,0
2018-11-14T05:53:32.948Z,0
2018-11-14T05:54:33.669Z,0
2018-11-14T05:55:34.387Z,0
2018-11-14T05:56:35.104Z,0
2018-11-14T05:57:35.816Z,0
2018-11-14T05:58:36.791Z,0
2018-11-14T05:59:37.505Z,0
2018-11-14T06:00:38.232Z,0
2018-11-14T06:01:39.005Z,0
2018-11-14T06:02:39.717Z,0
2018-11-14T06:03:40.434Z,0
2018-11-14T06:04:41.160Z,0
2018-11-14T06:05:41.871Z,4
2018-11-14T06:06:42.590Z,4
2018-11-14T06:07:43.308Z,0
2018-11-14T06:08:44.042Z,4
2018-11-14T06:09:44.782Z,4
2018-11-14T06:10:45.504Z,4
2018-11-14T06:11:46.272Z,8
2018-11-14T06:12:47.085Z,4
2018-11-14T06:13:47.813Z,8
2018-11-14T06:14:48.540Z,8
2018-11-14T06:15:49.257Z,8
2018-11-14T06:16:50.232Z,12
2018-11-14T06:17:50.955Z,12
2018-11-14T06:18:51.665Z,16
2018-11-14T06:19:52.395Z,24
2018-11-14T06:20:53.126Z,24
2018-11-14T06:21:55.354Z,28
2018-11-14T06:22:57.410Z,36
2018-11-14T06:23:59.290Z,40
2018-11-14T06:25:01.342Z,44
2018-11-14T06:26:03.409Z,52
2018-11-14T06:27:05.976Z,64
2018-11-14T06:28:07.841Z,76
2018-11-14T06:29:09.931Z,84
2018-11-14T06:30:11.768Z,96
2018-11-14T06:31:12.829Z,112
2018-11-14T06:32:13.895Z,128
2018-11-14T06:33:14.617Z,144
2018-11-14T06:34:15.343Z,160
2018-11-14T06:35:16.343Z,176
2018-11-14T06:36:17.053Z,196
2018-11-14T06:37:17.762Z,216
2018-11-14T06:38:18.734Z,240
2018-11-14T06:39:19.459Z,260
2018-11-14T06:40:20.177Z,288
2018-11-14T06:41:20.952Z,312
2018-11-14T06:42:21.668Z,336
2018-11-14T06:43:22.392Z,368
2018-11-14T06:44:23.120Z,396
2018-11-14T06:45:23.868Z,428
2018-11-14T06:46:24.611Z,456
2018-11-14T06:47:25.333Z,492
2018-11-14T06:48:26.109Z,524
2018-11-14T06:49:26.824Z,556
2018-11-14T06:50:27.541Z,592
2018-11-14T06:51:28.280Z,632
2018-11-14T06:52:28.996Z,676
2018-11-14T06:53:29.814Z,728
2018-11-14T06:54:30.547Z,784
2018-11-14T06:55:31.260Z,844
2018-11-14T06:56:31.996Z,912
2018-11-14T06:57:32.707Z,976
2018-11-14T06:58:33.452Z,1036
2018-11-14T06:59:34.206Z,1100
2018-11-14T07:00:34.880Z,1168
2018-11-14T07:01:35.851Z,1240
2018-11-14T07:02:38.338Z,1308
2018-11-14T07:03:37.331Z,1368
2018-11-14T07:04:38.082Z,1412
2018-11-14T07:05:38.854Z,1464
2018-11-14T07:06:39.581Z,1508
2018-11-14T07:07:40.305Z,1552
2018-11-14T07:08:41.035Z,1584
2018-11-14T07:09:41.751Z,1612
2018-11-14T07:10:42.752Z,1648
2018-11-14T07:11:43.463Z,1696
2018-11-14T07:12:44.202Z,1764
2018-11-14T07:13:45.033Z,1864
2018-11-14T07:14:45.751Z,2000
2018-11-14T07:15:46.512Z,2152
2018-11-14T07:16:47.550Z,2296
2018-11-14T07:17:48.327Z,2416
2018-11-14T07:18:49.013Z,2532
2018-11-14T07:19:49.732Z,2672
2018-11-14T07:20:50.458Z,2796
2018-11-14T07:21:51.189Z,2896
2018-11-14T07:22:51.927Z,2968
2018-11-14T07:23:52.723Z,3044
2018-11-14T07:24:53.642Z,3236
2018-11-14T07:25:54.368Z,3412
2018-11-14T07:26:55.087Z,3492
2018-11-14T07:27:55.804Z,3492
2018-11-14T07:28:56.538Z,3456
2018-11-14T07:29:57.257Z,3512
2018-11-14T07:30:58.152Z,3500
2018-11-14T07:31:58.915Z,3276
2018-11-14T07:32:59.634Z,3232
2018-11-14T07:34:00.360Z,3288
2018-11-14T07:35:01.073Z,3280
2018-11-14T07:36:01.905Z,3336
2018-11-14T07:37:02.617Z,3400
2018-11-14T07:38:03.351Z,3512
2018-11-14T07:39:04.079Z,3736
2018-11-14T07:40:04.808Z,3852
2018-11-14T07:41:05.590Z,3800
2018-11-14T07:42:06.304Z,3640
2018-11-14T07:43:07.032Z,3612
2018-11-14T07:44:07.758Z,3800
2018-11-14T07:45:08.471Z,3892
2018-11-14T07:46:09.192Z,3768
2018-11-14T07:47:09.917Z,3624
2018-11-14T07:48:10.627Z,3692
2018-11-14T07:49:11.667Z,3796
2018-11-14T07:50:12.377Z,3744
2018-11-14T07:51:13.121Z,3636
2018-11-14T07:52:13.946Z,3524
2018-11-14T07:53:14.669Z,3440
2018-11-14T07:54:15.387Z,3488
2018-11-14T07:55:16.119Z,3524
2018-11-14T07:56:17.105Z,3660
2018-11-14T07:57:17.875Z,3704
2018-11-14T07:58:18.589Z,3704
2018-11-14T07:59:19.329Z,3680
2018-11-14T08:00:20.049Z,3772
2018-11-14T08:01:20.770Z,3820
2018-11-14T08:02:21.852Z,3836
2018-11-14T08:03:22.518Z,3848
2018-11-14T08:04:23.225Z,3824
2018-11-14T08:05:23.960Z,3808
2018-11-14T08:06:24.944Z,3728
2018-11-14T08:07:25.663Z,3668
2018-11-14T08:08:26.483Z,3584
2018-11-14T08:09:27.134Z,3588
2018-11-14T08:10:27.868Z,3572
2018-11-14T08:11:28.674Z,3512
2018-11-14T08:12:29.936Z,3464
2018-11-14T08:13:30.672Z,3548
2018-11-14T08:14:31.395Z,3636
2018-11-14T08:15:32.122Z,3784
2018-11-14T08:16:32.844Z,3808
2018-11-14T08:17:33.819Z,3792
2018-11-14T08:18:34.544Z,3792
2018-11-14T08:19:35.363Z,3896
2018-11-14T08:20:36.152Z,4048
2018-11-14T08:21:36.875Z,4108
2018-11-14T08:22:37.622Z,4156
2018-11-14T08:23:38.360Z,4188
2018-11-14T08:24:39.336Z,4136
2018-11-14T08:25:40.344Z,4164
2018-11-14T08:26:41.074Z,4224
2018-11-14T08:27:41.793Z,4212
2018-11-14T08:28:42.507Z,4268
2018-11-14T08:29:43.488Z,4384
2018-11-14T08:30:44.302Z,4404
2018-11-14T08:31:45.117Z,4736
2018-11-14T08:32:46.332Z,5276
2018-11-14T08:33:47.458Z,5304
2018-11-14T08:34:48.441Z,4924
2018-11-14T08:36:51.147Z,5032
2018-11-14T08:37:52.203Z,5000
2018-11-14T08:38:52.929Z,4888
2018-11-14T08:39:53.925Z,5004
2018-11-14T08:40:54.907Z,5268
2018-11-14T08:41:55.655Z,5364
2018-11-14T08:42:56.375Z,5332
2018-11-14T08:43:57.109Z,5444
2018-11-14T08:44:57.849Z,5512
2018-11-14T08:45:58.730Z,5420
2018-11-14T08:46:59.750Z,5468
2018-11-14T08:48:00.753Z,5604
2018-11-14T08:49:01.471Z,5804
2018-11-14T08:50:02.208Z,5876
2018-11-14T08:51:02.982Z,6040
2018-11-14T08:52:03.706Z,6200
2018-11-14T08:53:04.433Z,6296
2018-11-14T08:54:05.156Z,6396
2018-11-14T08:55:05.876Z,6584
2018-11-14T08:56:06.615Z,6740
2018-11-14T08:57:07.624Z,6788
2018-11-14T08:58:08.443Z,6804
2018-11-14T08:59:09.362Z,6828
2018-11-14T09:00:10.097Z,6868
2018-11-14T09:01:10.876Z,6888
2018-11-14T09:02:11.855Z,6680
2018-11-14T09:03:12.579Z,6660
2018-11-14T09:04:13.328Z,6620
2018-11-14T09:05:14.519Z,6556
2018-11-14T09:06:15.439Z,6528
2018-11-14T09:07:16.104Z,6584
2018-11-14T09:08:16.852Z,6648
2018-11-14T09:09:17.590Z,6584
2018-11-14T09:10:18.319Z,6468
2018-11-14T09:11:19.227Z,6468
2018-11-14T09:12:19.951Z,6500
2018-11-14T09:13:20.629Z,6620
2018-11-14T09:14:21.397Z,6708
2018-11-14T09:15:22.081Z,6788
2018-11-14T09:16:22.807Z,6872
2018-11-14T09:17:23.542Z,6896
2018-11-14T09:18:24.323Z,6788
2018-11-14T09:19:25.025Z,6908
2018-11-14T09:20:25.749Z,6936
2018-11-14T09:21:26.726Z,7064
2018-11-14T09:22:27.476Z,6368
2018-11-14T09:23:28.194Z,7152
2018-11-14T09:24:28.919Z,7876
2018-11-14T09:25:29.645Z,8100
2018-11-14T09:26:30.437Z,9048
2018-11-14T09:27:31.192Z,8724
2018-11-14T09:28:31.929Z,8428
2018-11-14T09:29:32.666Z,8024
2018-11-14T09:30:33.385Z,8024
2018-11-14T09:31:34.128Z,8332
2018-11-14T09:32:34.882Z,8528
2018-11-14T09:33:35.728Z,8336
2018-11-14T09:34:36.785Z,7896
2018-11-14T09:35:37.486Z,8128
2018-11-14T09:36:38.210Z,8408
2018-11-14T09:37:38.930Z,8628
2018-11-14T09:38:39.680Z,9640
2018-11-14T09:39:40.415Z,10736
2018-11-14T09:40:41.194Z,11836
2018-11-14T09:41:41.870Z,11112
2018-11-14T09:42:42.606Z,9836
2018-11-14T09:43:43.383Z,10052
2018-11-14T09:44:44.075Z,9928
2018-11-14T09:45:44.820Z,10076
2018-11-14T09:46:45.555Z,9956
2018-11-14T09:47:46.294Z,10088
2018-11-14T09:48:47.074Z,10924
2018-11-14T09:49:47.815Z,10984
2018-11-14T09:50:48.532Z,10508
2018-11-14T09:51:49.269Z,10780
2018-11-14T09:52:50.008Z,11412
2018-11-14T09:53:50.828Z,11528
2018-11-14T09:54:51.573Z,12260
2018-11-14T09:55:52.301Z,13424
2018-11-14T09:56:53.103Z,12872
2018-11-14T09:57:53.783Z,12136
2018-11-14T09:58:54.510Z,11512
2018-11-14T09:59:55.226Z,10712
2018-11-14T10:00:55.950Z,10188
2018-11-14T10:01:56.679Z,9516
2018-11-14T10:02:57.506Z,9280
2018-11-14T10:03:58.146Z,9504
2018-11-14T10:04:58.887Z,9908
2018-11-14T10:05:59.662Z,9424
2018-11-14T10:07:00.347Z,8944
2018-11-14T10:08:01.118Z,9036
2018-11-14T10:09:01.810Z,9308
2018-11-14T10:10:02.529Z,9252
2018-11-14T10:11:03.263Z,9404
2018-11-14T10:12:04.015Z,9072
2018-11-14T10:13:04.724Z,9040
2018-11-14T10:14:05.491Z,7832
2018-11-14T10:15:06.218Z,7064
2018-11-14T10:16:06.962Z,7320
2018-11-14T10:17:07.676Z,9068
2018-11-14T10:18:08.424Z,9196
2018-11-14T10:19:09.156Z,9148
2018-11-14T10:20:09.877Z,7244
2018-11-14T10:21:10.613Z,7044
2018-11-14T10:22:11.333Z,6884
2018-11-14T10:23:12.064Z,6896
2018-11-14T10:24:13.935Z,7984
2018-11-14T10:25:14.655Z,9304
2018-11-14T10:26:15.402Z,9000
2018-11-14T10:27:16.382Z,9252
2018-11-14T10:28:17.107Z,12204
2018-11-14T10:29:17.841Z,12360
2018-11-14T10:30:18.694Z,12192
2018-11-14T10:31:19.402Z,11268
2018-11-14T10:32:20.124Z,10984
2018-11-14T10:33:20.850Z,8940
2018-11-14T10:34:21.580Z,8692
2018-11-14T10:35:22.301Z,8412
2018-11-14T10:36:23.041Z,7980
2018-11-14T10:37:23.765Z,8796
2018-11-14T10:38:24.792Z,9820
2018-11-14T10:39:25.515Z,9216
2018-11-14T10:40:26.650Z,8336
2018-11-14T10:41:27.376Z,8232
2018-11-14T10:42:28.103Z,7988
2018-11-14T10:43:28.835Z,9168
2018-11-14T10:44:29.567Z,9340
2018-11-14T10:45:30.331Z,10720
2018-11-14T10:46:31.094Z,10092
2018-11-14T10:47:31.832Z,8908
2018-11-14T10:48:32.564Z,8628
2018-11-14T10:49:33.279Z,9516
2018-11-14T10:50:34.002Z,10000
2018-11-14T10:51:34.737Z,9548
2018-11-14T10:52:35.483Z,9940
2018-11-14T10:53:36.205Z,9816
2018-11-14T10:54:36.949Z,10196
2018-11-14T10:55:37.686Z,9860
2018-11-14T10:56:38.410Z,10856
2018-11-14T10:57:39.146Z,11304
2018-11-14T10:58:39.909Z,10276
2018-11-14T10:59:40.650Z,10904
2018-11-14T11:00:41.372Z,11164
2018-11-14T11:01:42.097Z,10796
2018-11-14T11:02:42.817Z,9424
2018-11-14T11:03:43.549Z,9604
2018-11-14T11:04:44.270Z,10752
2018-11-14T11:05:45.025Z,8496
2018-11-14T11:06:45.766Z,9012
2018-11-14T11:07:46.550Z,10172
2018-11-14T11:08:47.318Z,9180
2018-11-14T11:09:48.035Z,10204
2018-11-14T11:10:48.753Z,11660
2018-11-14T11:11:49.479Z,12224
2018-11-14T11:12:50.216Z,12584
2018-11-14T11:13:51.233Z,12524
2018-11-14T11:14:51.965Z,11040
2018-11-14T11:15:52.691Z,9720
2018-11-14T11:16:53.411Z,9784
2018-11-14T11:17:54.151Z,10956
2018-11-14T11:18:54.898Z,11576
2018-11-14T11:19:55.728Z,12300
2018-11-14T11:20:56.453Z,10432
2018-11-14T11:21:57.185Z,10912
2018-11-14T11:22:57.915Z,12920
2018-11-14T11:23:58.645Z,13116
2018-11-14T11:24:59.393Z,11736
2018-11-14T11:26:00.133Z,9724
2018-11-14T11:27:00.854Z,9244
2018-11-14T11:28:01.590Z,9964
2018-11-14T11:29:02.313Z,9728
2018-11-14T11:30:03.099Z,9140
2018-11-14T11:31:03.835Z,10980
2018-11-14T11:32:04.668Z,12324
2018-11-14T11:33:05.304Z,11452
2018-11-14T11:34:06.040Z,11712
2018-11-14T11:35:06.767Z,12976
2018-11-14T11:36:07.506Z,8924
2018-11-14T11:37:08.285Z,12664
2018-11-14T11:38:09.018Z,13008
2018-11-14T11:39:09.757Z,13212
2018-11-14T11:40:10.476Z,13392
2018-11-14T11:41:11.209Z,13468
2018-11-14T11:42:12.034Z,14972
2018-11-14T11:43:12.762Z,14456
2018-11-14T11:44:13.515Z,17696
2018-11-14T11:45:14.242Z,16480
2018-11-14T11:46:14.980Z,15052
2018-11-14T11:47:15.700Z,13560
2018-11-14T11:48:16.433Z,13696
2018-11-14T11:49:17.170Z,15772
2018-11-14T11:50:17.889Z,16608
2018-11-14T11:51:18.625Z,15804
2018-11-14T11:52:19.345Z,15040
2018-11-14T11:53:20.334Z,12312
2018-11-14T11:54:21.069Z,12704
2018-11-14T11:55:21.845Z,15032
2018-11-14T11:56:22.560Z,13348
2018-11-14T11:57:23.313Z,10812
2018-11-14T11:58:24.081Z,9076
2018-11-14T11:59:24.862Z,9320
2018-11-14T12:00:25.689Z,10476
2018-11-14T12:01:26.326Z,11288
2018-11-14T12:02:27.086Z,10816
2018-11-14T12:03:27.960Z,10240
2018-11-14T12:04:28.707Z,9780
2018-11-14T12:05:29.432Z,9396
2018-11-14T12:06:30.687Z,10476
2018-11-14T12:07:31.544Z,11860
2018-11-14T12:08:32.292Z,9152
2018-11-14T12:09:33.017Z,9784
2018-11-14T12:10:33.799Z,6780
2018-11-14T12:11:34.483Z,7532
2018-11-14T12:12:35.213Z,10556
2018-11-14T12:13:35.988Z,11748
2018-11-14T12:14:36.671Z,10160
2018-11-14T12:15:37.418Z,11596
2018-11-14T12:16:38.146Z,11216
2018-11-14T12:17:38.931Z,9768
2018-11-14T12:18:39.610Z,8060
2018-11-14T12:19:40.337Z,8032
2018-11-14T12:20:41.088Z,8768
2018-11-14T12:21:41.802Z,6260
2018-11-14T12:22:42.542Z,6508
2018-11-14T12:23:43.362Z,7028
2018-11-14T12:24:44.011Z,10852
2018-11-14T12:25:44.756Z,11616
2018-11-14T12:26:45.501Z,11380
2018-11-14T12:27:46.249Z,11728
2018-11-14T12:28:46.981Z,11868
2018-11-14T12:29:47.821Z,14104
2018-11-14T12:30:48.717Z,13420
2018-11-14T12:31:49.289Z,13280
2018-11-14T12:32:50.012Z,11516
2018-11-14T12:33:50.739Z,10100
2018-11-14T12:34:51.559Z,11692
2018-11-14T12:35:52.469Z,12864
2018-11-14T12:36:53.192Z,11884
2018-11-14T12:37:53.921Z,10920
2018-11-14T12:38:54.708Z,8264
2018-11-14T12:39:55.436Z,7708
2018-11-14T12:40:56.180Z,9724
2018-11-14T12:41:56.918Z,10672
2018-11-14T12:42:57.660Z,11700
2018-11-14T12:43:58.383Z,10376
2018-11-14T12:44:59.125Z,11164
2018-11-14T12:45:59.841Z,11468
2018-11-14T12:47:00.578Z,10788
2018-11-14T12:48:01.293Z,9860
2018-11-14T12:49:02.323Z,9120
2018-11-14T12:50:03.065Z,8228
2018-11-14T12:51:03.796Z,8352
2018-11-14T12:52:04.524Z,8596
2018-11-14T12:53:05.270Z,8292
2018-11-14T12:54:06.006Z,8500
2018-11-14T12:55:06.731Z,8680
2018-11-14T12:56:07.722Z,8812
2018-11-14T12:57:08.460Z,9080
2018-11-14T12:58:09.190Z,8392
2018-11-14T12:59:09.924Z,7740
2018-11-14T13:00:10.723Z,7456
2018-11-14T13:01:11.385Z,7084
2018-11-14T13:02:12.368Z,7128
2018-11-14T13:03:13.101Z,6336
2018-11-14T13:04:13.819Z,6908
2018-11-14T13:05:14.555Z,6916
2018-11-14T13:06:15.547Z,6752
2018-11-14T13:07:16.278Z,6732
2018-11-14T13:08:17.057Z,6696
2018-11-14T13:09:17.795Z,6748
2018-11-14T13:10:18.526Z,6580
2018-11-14T13:11:19.252Z,6320
2018-11-14T13:12:19.980Z,6300
2018-11-14T13:13:20.816Z,6100
2018-11-14T13:14:21.799Z,6064
2018-11-14T13:15:22.542Z,5960
2018-11-14T13:16:23.272Z,5672
2018-11-14T13:17:24.003Z,5496
2018-11-14T13:18:24.738Z,5404
2018-11-14T13:19:25.479Z,5464
2018-11-14T13:20:26.213Z,5592
2018-11-14T13:21:26.968Z,5656
2018-11-14T13:22:27.946Z,5716
2018-11-14T13:23:28.659Z,5864
2018-11-14T13:24:29.477Z,5896
2018-11-14T13:25:30.206Z,5960
2018-11-14T13:26:30.936Z,6172
2018-11-14T13:27:31.660Z,6340
2018-11-14T13:28:32.381Z,6180
2018-11-14T13:29:33.409Z,6116
2018-11-14T13:30:34.133Z,6112
2018-11-14T13:31:34.856Z,6076
2018-11-14T13:32:35.589Z,6140
2018-11-14T13:33:36.330Z,6096
2018-11-14T13:34:37.072Z,6060
2018-11-14T13:35:37.790Z,6084
2018-11-14T13:36:38.538Z,6048
2018-11-14T13:37:39.286Z,6096
2018-11-14T13:38:40.263Z,6204
2018-11-14T13:39:40.997Z,6076
2018-11-14T13:40:41.727Z,5976
2018-11-14T13:41:42.442Z,5856
2018-11-14T13:42:43.172Z,5496
2018-11-14T13:43:43.901Z,5464
2018-11-14T13:44:44.624Z,5472
2018-11-14T13:45:45.351Z,5408
2018-11-14T13:46:46.436Z,5448
2018-11-14T13:47:47.171Z,5428
2018-11-14T13:48:47.900Z,5444
2018-11-14T13:49:48.979Z,5104
2018-11-14T13:50:49.714Z,4860
2018-11-14T13:51:50.237Z,4764
2018-11-14T13:52:50.963Z,4732
2018-11-14T13:53:51.686Z,4668
2018-11-14T13:54:52.409Z,4532
2018-11-14T13:55:53.127Z,4476
2018-11-14T13:56:53.899Z,4416
2018-11-14T13:57:54.651Z,4380
2018-11-14T13:58:55.383Z,4372
2018-11-14T13:59:56.120Z,4376
2018-11-14T14:00:56.843Z,4372
2018-11-14T14:01:57.669Z,4368
2018-11-14T14:02:58.395Z,4340
2018-11-14T14:03:59.123Z,4300
2018-11-14T14:04:59.881Z,4248
2018-11-14T14:06:00.627Z,4208